sensor_id;sensor_type;location;lat;lon;timestamp;pressure;altitude;pressure_sealevel;temperature;humidity
26807;BME280;14380;49.910;6.792;2024-03-08T00:02:34;98698.53;;;2.41;100.00
26807;BME280;14380;49.910;6.792;2024-03-08T00:05:00;98690.63;;;2.80;100.00
26807;BME280;14380;49.910;6.792;2024-03-08T00:07:27;98688.59;;;2.57;100.00
26807;BME280;14380;49.910;6.792;2024-03-08T00:09:54;98684.81;;;2.71;100.00
26807;BME280;14380;49.910;6.792;2024-03-08T00:12:22;98686.13;;;2.51;100.00
26807;BME280;14380;49.910;6.792;2024-03-08T00:14:48;98683.22;;;2.65;100.00
26807;BME280;14380;49.910;6.792;2024-03-08T00:17:15;98679.06;;;2.56;100.00
26807;BME280;14380;49.910;6.792;2024-03-08T00:19:42;98683.66;;;2.45;100.00
26807;BME280;14380;49.910;6.792;2024-03-08T00:22:08;98684.41;;;2.50;100.00
26807;BME280;14380;49.910;6.792;2024-03-08T00:24:35;98680.69;;;2.24;100.00
26807;BME280;14380;49.910;6.792;2024-03-08T00:27:02;98677.19;;;2.61;100.00
26807;BME280;14380;49.910;6.792;2024-03-08T00:29:31;98676.09;;;2.35;100.00
26807;BME280;14380;49.910;6.792;2024-03-08T00:31:58;98677.78;;;2.36;100.00
26807;BME280;14380;49.910;6.792;2024-03-08T00:34:25;98673.84;;;2.56;100.00
26807;BME280;14380;49.910;6.792;2024-03-08T00:36:51;98676.00;;;2.38;100.00
26807;BME280;14380;49.910;6.792;2024-03-08T00:39:18;98676.91;;;2.37;100.00
26807;BME280;14380;49.910;6.792;2024-03-08T00:41:45;98670.81;;;2.37;100.00
26807;BME280;14380;49.910;6.792;2024-03-08T00:44:11;98666.75;;;2.25;100.00
26807;BME280;14380;49.910;6.792;2024-03-08T00:46:39;98659.97;;;2.56;100.00
26807;BME280;14380;49.910;6.792;2024-03-08T00:49:06;98671.03;;;2.28;100.00
26807;BME280;14380;49.910;6.792;2024-03-08T00:51:33;98662.75;;;2.48;100.00
26807;BME280;14380;49.910;6.792;2024-03-08T00:53:59;98665.78;;;2.29;100.00
26807;BME280;14380;49.910;6.792;2024-03-08T00:56:26;98661.41;;;2.31;100.00
26807;BME280;14380;49.910;6.792;2024-03-08T00:58:52;98667.66;;;2.24;100.00
26807;BME280;14380;49.910;6.792;2024-03-08T01:01:19;98664.34;;;2.16;100.00
26807;BME280;14380;49.910;6.792;2024-03-08T01:03:47;98662.91;;;2.02;100.00
26807;BME280;14380;49.910;6.792;2024-03-08T01:06:14;98658.66;;;2.37;100.00
26807;BME280;14380;49.910;6.792;2024-03-08T01:08:40;98653.25;;;2.07;100.00
26807;BME280;14380;49.910;6.792;2024-03-08T01:11:07;98651.41;;;2.13;100.00
26807;BME280;14380;49.910;6.792;2024-03-08T01:13:34;98644.69;;;2.40;100.00
26807;BME280;14380;49.910;6.792;2024-03-08T01:16:01;98634.28;;;2.40;100.00
26807;BME280;14380;49.910;6.792;2024-03-08T01:18:29;98636.28;;;1.91;100.00
26807;BME280;14380;49.910;6.792;2024-03-08T01:20:57;98632.47;;;2.04;100.00
26807;BME280;14380;49.910;6.792;2024-03-08T01:23:23;98628.16;;;2.43;100.00
26807;BME280;14380;49.910;6.792;2024-03-08T01:25:50;98622.69;;;2.16;100.00
26807;BME280;14380;49.910;6.792;2024-03-08T01:28:22;98629.13;;;2.37;100.00
26807;BME280;14380;49.910;6.792;2024-03-08T01:30:48;98621.09;;;2.08;100.00
26807;BME280;14380;49.910;6.792;2024-03-08T01:33:20;98620.00;;;2.19;100.00
26807;BME280;14380;49.910;6.792;2024-03-08T01:35:48;98612.53;;;2.03;100.00
26807;BME280;14380;49.910;6.792;2024-03-08T01:38:15;98613.13;;;2.16;100.00
26807;BME280;14380;49.910;6.792;2024-03-08T01:40:42;98608.22;;;2.02;100.00
26807;BME280;14380;49.910;6.792;2024-03-08T01:43:27;98604.84;;;1.99;100.00
26807;BME280;14380;49.910;6.792;2024-03-08T01:45:55;98594.09;;;2.14;100.00
26807;BME280;14380;49.910;6.792;2024-03-08T01:48:23;98605.06;;;1.89;100.00
26807;BME280;14380;49.910;6.792;2024-03-08T01:50:51;98595.47;;;1.91;100.00
26807;BME280;14380;49.910;6.792;2024-03-08T01:53:22;98590.69;;;2.11;100.00
26807;BME280;14380;49.910;6.792;2024-03-08T01:55:49;98585.63;;;2.04;100.00
26807;BME280;14380;49.910;6.792;2024-03-08T01:58:16;98586.44;;;2.06;100.00
26807;BME280;14380;49.910;6.792;2024-03-08T02:00:44;98582.56;;;1.85;100.00
26807;BME280;14380;49.910;6.792;2024-03-08T02:03:14;98577.78;;;2.06;100.00
26807;BME280;14380;49.910;6.792;2024-03-08T02:05:41;98571.75;;;2.04;100.00
26807;BME280;14380;49.910;6.792;2024-03-08T02:08:09;98571.84;;;1.99;100.00
26807;BME280;14380;49.910;6.792;2024-03-08T02:10:41;98560.31;;;2.11;100.00
26807;BME280;14380;49.910;6.792;2024-03-08T02:13:08;98561.13;;;1.75;100.00
26807;BME280;14380;49.910;6.792;2024-03-08T02:15:51;98556.81;;;2.11;100.00
26807;BME280;14380;49.910;6.792;2024-03-08T02:18:17;98555.34;;;2.36;100.00
26807;BME280;14380;49.910;6.792;2024-03-08T02:20:46;98560.50;;;2.02;100.00
26807;BME280;14380;49.910;6.792;2024-03-08T02:23:13;98552.16;;;2.25;100.00
26807;BME280;14380;49.910;6.792;2024-03-08T02:25:40;98551.75;;;2.06;100.00
26807;BME280;14380;49.910;6.792;2024-03-08T02:28:09;98545.97;;;2.29;100.00
26807;BME280;14380;49.910;6.792;2024-03-08T02:30:36;98551.69;;;2.07;100.00
26807;BME280;14380;49.910;6.792;2024-03-08T02:33:02;98540.63;;;2.34;100.00
26807;BME280;14380;49.910;6.792;2024-03-08T02:35:29;98539.41;;;2.14;100.00
26807;BME280;14380;49.910;6.792;2024-03-08T02:37:57;98539.00;;;1.95;100.00
26807;BME280;14380;49.910;6.792;2024-03-08T02:40:23;98533.84;;;2.28;100.00
26807;BME280;14380;49.910;6.792;2024-03-08T02:42:50;98537.28;;;1.92;100.00
26807;BME280;14380;49.910;6.792;2024-03-08T02:45:16;98535.69;;;1.87;100.00
26807;BME280;14380;49.910;6.792;2024-03-08T02:47:43;98535.06;;;2.13;100.00
26807;BME280;14380;49.910;6.792;2024-03-08T02:50:11;98535.28;;;2.04;100.00
26807;BME280;14380;49.910;6.792;2024-03-08T02:52:41;98528.03;;;2.17;100.00
26807;BME280;14380;49.910;6.792;2024-03-08T02:55:09;98529.81;;;2.15;100.00
26807;BME280;14380;49.910;6.792;2024-03-08T02:57:40;98524.84;;;2.40;100.00
26807;BME280;14380;49.910;6.792;2024-03-08T03:00:07;98521.81;;;2.22;100.00
26807;BME280;14380;49.910;6.792;2024-03-08T03:02:35;98527.13;;;2.18;100.00
26807;BME280;14380;49.910;6.792;2024-03-08T03:05:02;98526.03;;;2.28;100.00
26807;BME280;14380;49.910;6.792;2024-03-08T03:07:31;98525.31;;;2.21;100.00
26807;BME280;14380;49.910;6.792;2024-03-08T03:09:58;98517.63;;;2.17;100.00
26807;BME280;14380;49.910;6.792;2024-03-08T03:12:26;98507.72;;;2.31;100.00
26807;BME280;14380;49.910;6.792;2024-03-08T03:14:53;98512.03;;;2.31;100.00
26807;BME280;14380;49.910;6.792;2024-03-08T03:17:21;98507.56;;;2.36;100.00
26807;BME280;14380;49.910;6.792;2024-03-08T03:19:48;98509.00;;;2.48;100.00
26807;BME280;14380;49.910;6.792;2024-03-08T03:22:14;98509.41;;;2.32;100.00
26807;BME280;14380;49.910;6.792;2024-03-08T03:24:41;98503.06;;;2.76;100.00
26807;BME280;14380;49.910;6.792;2024-03-08T03:27:08;98497.91;;;2.41;100.00
26807;BME280;14380;49.910;6.792;2024-03-08T03:29:38;98501.16;;;2.49;100.00
26807;BME280;14380;49.910;6.792;2024-03-08T03:32:05;98497.34;;;2.63;100.00
26807;BME280;14380;49.910;6.792;2024-03-08T03:34:33;98500.28;;;2.82;100.00
26807;BME280;14380;49.910;6.792;2024-03-08T03:37:01;98491.84;;;2.72;100.00
26807;BME280;14380;49.910;6.792;2024-03-08T03:39:28;98494.03;;;2.88;100.00
26807;BME280;14380;49.910;6.792;2024-03-08T03:41:57;98491.97;;;2.99;100.00
26807;BME280;14380;49.910;6.792;2024-03-08T03:44:23;98483.84;;;3.10;100.00
26807;BME280;14380;49.910;6.792;2024-03-08T03:46:51;98484.31;;;3.23;99.91
26807;BME280;14380;49.910;6.792;2024-03-08T03:49:18;98487.72;;;3.26;100.00
26807;BME280;14380;49.910;6.792;2024-03-08T03:51:45;98482.88;;;3.42;98.69
26807;BME280;14380;49.910;6.792;2024-03-08T03:54:11;98479.91;;;3.25;100.00
26807;BME280;14380;49.910;6.792;2024-03-08T03:56:38;98479.31;;;3.45;98.96
26807;BME280;14380;49.910;6.792;2024-03-08T03:59:05;98475.16;;;3.66;97.22
26807;BME280;14380;49.910;6.792;2024-03-08T04:01:32;98473.38;;;3.40;98.73
26807;BME280;14380;49.910;6.792;2024-03-08T04:04:00;98470.00;;;3.36;98.55
26807;BME280;14380;49.910;6.792;2024-03-08T04:06:27;98473.81;;;3.54;98.53
26807;BME280;14380;49.910;6.792;2024-03-08T04:08:54;98463.84;;;3.39;98.47
26807;BME280;14380;49.910;6.792;2024-03-08T04:11:20;98456.81;;;3.41;98.60
26807;BME280;14380;49.910;6.792;2024-03-08T04:13:47;98462.94;;;3.40;97.96
26807;BME280;14380;49.910;6.792;2024-03-08T04:16:13;98464.53;;;3.44;98.20
26807;BME280;14380;49.910;6.792;2024-03-08T04:18:41;98458.97;;;3.55;97.47
26807;BME280;14380;49.910;6.792;2024-03-08T04:21:09;98458.66;;;3.66;97.40
26807;BME280;14380;49.910;6.792;2024-03-08T04:23:36;98465.31;;;3.48;97.49
26807;BME280;14380;49.910;6.792;2024-03-08T04:26:03;98468.84;;;3.47;97.41
26807;BME280;14380;49.910;6.792;2024-03-08T04:28:31;98460.13;;;3.46;97.91
26807;BME280;14380;49.910;6.792;2024-03-08T04:30:58;98469.28;;;3.60;97.28
26807;BME280;14380;49.910;6.792;2024-03-08T04:33:26;98462.63;;;3.51;96.08
26807;BME280;14380;49.910;6.792;2024-03-08T04:35:52;98456.44;;;3.53;96.46
26807;BME280;14380;49.910;6.792;2024-03-08T04:38:20;98448.69;;;3.50;97.21
26807;BME280;14380;49.910;6.792;2024-03-08T04:40:47;98458.34;;;3.48;97.14
26807;BME280;14380;49.910;6.792;2024-03-08T04:43:14;98452.91;;;3.54;97.76
26807;BME280;14380;49.910;6.792;2024-03-08T04:45:40;98454.56;;;3.57;96.84
26807;BME280;14380;49.910;6.792;2024-03-08T04:48:09;98454.97;;;3.45;96.03
26807;BME280;14380;49.910;6.792;2024-03-08T04:50:36;98451.69;;;3.38;96.75
26807;BME280;14380;49.910;6.792;2024-03-08T04:53:03;98456.34;;;3.28;97.24
26807;BME280;14380;49.910;6.792;2024-03-08T04:55:34;98455.44;;;3.57;95.56
26807;BME280;14380;49.910;6.792;2024-03-08T04:58:02;98456.84;;;3.68;94.57
26807;BME280;14380;49.910;6.792;2024-03-08T05:00:31;98457.44;;;3.49;95.25
26807;BME280;14380;49.910;6.792;2024-03-08T05:02:57;98452.38;;;3.45;96.29
26807;BME280;14380;49.910;6.792;2024-03-08T05:05:24;98450.31;;;3.54;95.52
26807;BME280;14380;49.910;6.792;2024-03-08T05:07:51;98450.66;;;3.44;95.40
26807;BME280;14380;49.910;6.792;2024-03-08T05:10:18;98450.03;;;3.35;95.37
26807;BME280;14380;49.910;6.792;2024-03-08T05:12:47;98450.06;;;3.62;94.71
26807;BME280;14380;49.910;6.792;2024-03-08T05:15:13;98446.44;;;3.39;95.09
26807;BME280;14380;49.910;6.792;2024-03-08T05:17:40;98445.84;;;3.58;94.16
26807;BME280;14380;49.910;6.792;2024-03-08T05:20:08;98443.56;;;3.47;95.11
26807;BME280;14380;49.910;6.792;2024-03-08T05:22:37;98449.84;;;3.41;95.44
26807;BME280;14380;49.910;6.792;2024-03-08T05:25:05;98445.34;;;3.47;95.14
26807;BME280;14380;49.910;6.792;2024-03-08T05:27:33;98439.53;;;3.37;95.71
26807;BME280;14380;49.910;6.792;2024-03-08T05:30:01;98436.09;;;3.36;95.25
26807;BME280;14380;49.910;6.792;2024-03-08T05:32:29;98438.53;;;3.41;94.60
26807;BME280;14380;49.910;6.792;2024-03-08T05:34:55;98443.47;;;3.50;94.59
26807;BME280;14380;49.910;6.792;2024-03-08T05:37:21;98440.84;;;3.52;94.47
26807;BME280;14380;49.910;6.792;2024-03-08T05:39:48;98442.63;;;3.21;94.90
26807;BME280;14380;49.910;6.792;2024-03-08T05:42:14;98441.19;;;3.11;96.50
26807;BME280;14380;49.910;6.792;2024-03-08T05:44:41;98443.75;;;3.41;94.49
26807;BME280;14380;49.910;6.792;2024-03-08T05:47:09;98434.66;;;3.26;94.82
26807;BME280;14380;49.910;6.792;2024-03-08T05:49:36;98431.66;;;3.10;94.78
26807;BME280;14380;49.910;6.792;2024-03-08T05:52:03;98432.81;;;3.30;93.95
26807;BME280;14380;49.910;6.792;2024-03-08T05:54:32;98424.38;;;3.21;94.69
26807;BME280;14380;49.910;6.792;2024-03-08T05:56:59;98432.31;;;3.17;94.72
26807;BME280;14380;49.910;6.792;2024-03-08T05:59:26;98417.56;;;3.16;94.97
26807;BME280;14380;49.910;6.792;2024-03-08T06:01:52;98418.38;;;3.18;94.17
26807;BME280;14380;49.910;6.792;2024-03-08T06:04:21;98429.34;;;3.29;94.23
26807;BME280;14380;49.910;6.792;2024-03-08T06:06:47;98429.25;;;3.32;94.69
26807;BME280;14380;49.910;6.792;2024-03-08T06:09:14;98428.34;;;3.33;94.04
26807;BME280;14380;49.910;6.792;2024-03-08T06:11:48;98424.78;;;3.36;93.92
26807;BME280;14380;49.910;6.792;2024-03-08T06:14:16;98423.16;;;3.32;93.80
26807;BME280;14380;49.910;6.792;2024-03-08T06:16:44;98425.38;;;3.17;93.92
26807;BME280;14380;49.910;6.792;2024-03-08T06:19:10;98417.94;;;3.32;93.78
26807;BME280;14380;49.910;6.792;2024-03-08T06:21:38;98426.13;;;3.21;94.42
26807;BME280;14380;49.910;6.792;2024-03-08T06:24:06;98419.78;;;3.30;93.81
26807;BME280;14380;49.910;6.792;2024-03-08T06:26:33;98418.47;;;3.43;92.16
26807;BME280;14380;49.910;6.792;2024-03-08T06:29:00;98414.59;;;3.28;93.53
26807;BME280;14380;49.910;6.792;2024-03-08T06:31:26;98417.28;;;2.96;94.85
26807;BME280;14380;49.910;6.792;2024-03-08T06:33:53;98417.16;;;3.30;93.44
26807;BME280;14380;49.910;6.792;2024-03-08T06:36:20;98412.88;;;3.27;93.81
26807;BME280;14380;49.910;6.792;2024-03-08T06:38:48;98421.50;;;3.31;92.85
26807;BME280;14380;49.910;6.792;2024-03-08T06:41:15;98413.78;;;3.26;93.93
26807;BME280;14380;49.910;6.792;2024-03-08T06:43:42;98413.06;;;3.21;93.47
26807;BME280;14380;49.910;6.792;2024-03-08T06:46:08;98411.25;;;3.24;93.54
26807;BME280;14380;49.910;6.792;2024-03-08T06:48:37;98405.53;;;3.40;93.83
26807;BME280;14380;49.910;6.792;2024-03-08T06:51:05;98407.31;;;3.38;93.21
26807;BME280;14380;49.910;6.792;2024-03-08T06:53:32;98400.25;;;3.41;93.63
26807;BME280;14380;49.910;6.792;2024-03-08T06:56:01;98404.72;;;3.38;92.91
26807;BME280;14380;49.910;6.792;2024-03-08T06:58:28;98407.75;;;3.24;93.28
26807;BME280;14380;49.910;6.792;2024-03-08T07:00:54;98395.69;;;3.48;92.58
26807;BME280;14380;49.910;6.792;2024-03-08T07:03:23;98404.59;;;3.42;93.03
26807;BME280;14380;49.910;6.792;2024-03-08T07:05:51;98389.19;;;3.62;92.50
26807;BME280;14380;49.910;6.792;2024-03-08T07:08:18;98393.84;;;3.52;92.91
26807;BME280;14380;49.910;6.792;2024-03-08T07:10:46;98394.50;;;3.59;92.60
26807;BME280;14380;49.910;6.792;2024-03-08T07:13:16;98392.47;;;3.40;93.18
26807;BME280;14380;49.910;6.792;2024-03-08T07:15:43;98384.41;;;3.48;92.71
26807;BME280;14380;49.910;6.792;2024-03-08T07:18:09;98389.41;;;3.54;93.25
26807;BME280;14380;49.910;6.792;2024-03-08T07:20:39;98388.31;;;3.61;91.86
26807;BME280;14380;49.910;6.792;2024-03-08T07:23:06;98384.31;;;3.76;91.82
26807;BME280;14380;49.910;6.792;2024-03-08T07:25:34;98377.97;;;3.85;91.92
26807;BME280;14380;49.910;6.792;2024-03-08T07:28:00;98379.34;;;3.95;90.57
26807;BME280;14380;49.910;6.792;2024-03-08T07:30:28;98381.16;;;3.68;91.41
26807;BME280;14380;49.910;6.792;2024-03-08T07:33:12;98375.16;;;3.91;91.02
26807;BME280;14380;49.910;6.792;2024-03-08T07:35:40;98382.31;;;3.84;90.99
26807;BME280;14380;49.910;6.792;2024-03-08T07:38:07;98376.25;;;3.84;90.98
26807;BME280;14380;49.910;6.792;2024-03-08T07:40:37;98376.94;;;3.89;91.15
26807;BME280;14380;49.910;6.792;2024-03-08T07:43:05;98375.59;;;3.77;91.38
26807;BME280;14380;49.910;6.792;2024-03-08T07:45:33;98376.16;;;3.87;92.21
26807;BME280;14380;49.910;6.792;2024-03-08T07:48:01;98374.75;;;4.02;90.92
26807;BME280;14380;49.910;6.792;2024-03-08T07:50:30;98366.66;;;3.84;91.70
26807;BME280;14380;49.910;6.792;2024-03-08T07:52:58;98363.31;;;4.06;91.25
26807;BME280;14380;49.910;6.792;2024-03-08T07:55:24;98364.56;;;4.20;90.43
26807;BME280;14380;49.910;6.792;2024-03-08T07:57:51;98361.59;;;4.05;90.93
26807;BME280;14380;49.910;6.792;2024-03-08T08:00:18;98362.78;;;4.45;89.60
26807;BME280;14380;49.910;6.792;2024-03-08T08:02:46;98356.13;;;4.37;89.26
26807;BME280;14380;49.910;6.792;2024-03-08T08:05:14;98353.56;;;4.35;88.54
26807;BME280;14380;49.910;6.792;2024-03-08T08:07:44;98353.13;;;4.47;88.95
26807;BME280;14380;49.910;6.792;2024-03-08T08:10:11;98341.50;;;4.79;88.56
26807;BME280;14380;49.910;6.792;2024-03-08T08:12:44;98346.41;;;4.86;88.52
26807;BME280;14380;49.910;6.792;2024-03-08T08:15:10;98343.56;;;4.93;87.13
26807;BME280;14380;49.910;6.792;2024-03-08T08:17:38;98341.69;;;4.96;87.65
26807;BME280;14380;49.910;6.792;2024-03-08T08:20:07;98351.06;;;5.02;87.28
26807;BME280;14380;49.910;6.792;2024-03-08T08:22:33;98341.44;;;5.47;85.79
26807;BME280;14380;49.910;6.792;2024-03-08T08:25:00;98336.09;;;5.28;86.29
26807;BME280;14380;49.910;6.792;2024-03-08T08:27:27;98328.84;;;5.12;85.44
26807;BME280;14380;49.910;6.792;2024-03-08T08:29:53;98331.91;;;5.24;86.14
26807;BME280;14380;49.910;6.792;2024-03-08T08:32:21;98329.66;;;5.35;86.42
26807;BME280;14380;49.910;6.792;2024-03-08T08:34:47;98312.13;;;5.37;85.33
26807;BME280;14380;49.910;6.792;2024-03-08T08:37:15;98316.91;;;5.70;84.57
26807;BME280;14380;49.910;6.792;2024-03-08T08:39:42;98305.53;;;5.28;85.16
26807;BME280;14380;49.910;6.792;2024-03-08T08:42:09;98307.81;;;5.36;85.33
26807;BME280;14380;49.910;6.792;2024-03-08T08:44:36;98306.66;;;5.43;84.63
26807;BME280;14380;49.910;6.792;2024-03-08T08:47:03;98312.09;;;5.80;85.43
26807;BME280;14380;49.910;6.792;2024-03-08T08:49:29;98308.56;;;6.02;83.67
26807;BME280;14380;49.910;6.792;2024-03-08T08:51:56;98304.84;;;6.07;84.17
26807;BME280;14380;49.910;6.792;2024-03-08T08:54:25;98308.75;;;5.97;83.92
26807;BME280;14380;49.910;6.792;2024-03-08T08:56:52;98308.53;;;6.03;83.74
26807;BME280;14380;49.910;6.792;2024-03-08T08:59:19;98317.59;;;5.74;84.23
26807;BME280;14380;49.910;6.792;2024-03-08T09:01:48;98314.19;;;6.13;83.91
26807;BME280;14380;49.910;6.792;2024-03-08T09:04:15;98290.47;;;6.54;83.95
26807;BME280;14380;49.910;6.792;2024-03-08T09:06:42;98296.38;;;6.40;82.29
26807;BME280;14380;49.910;6.792;2024-03-08T09:09:10;98292.81;;;6.42;82.17
26807;BME280;14380;49.910;6.792;2024-03-08T09:11:40;98291.41;;;6.53;81.48
26807;BME280;14380;49.910;6.792;2024-03-08T09:14:07;98297.28;;;6.59;80.89
26807;BME280;14380;49.910;6.792;2024-03-08T09:16:34;98289.50;;;6.76;81.69
26807;BME280;14380;49.910;6.792;2024-03-08T09:19:00;98288.97;;;6.87;82.44
26807;BME280;14380;49.910;6.792;2024-03-08T09:21:27;98284.69;;;6.84;81.15
26807;BME280;14380;49.910;6.792;2024-03-08T09:23:53;98278.72;;;6.82;80.67
26807;BME280;14380;49.910;6.792;2024-03-08T09:26:20;98273.94;;;6.72;79.47
26807;BME280;14380;49.910;6.792;2024-03-08T09:28:48;98274.78;;;7.09;78.66
26807;BME280;14380;49.910;6.792;2024-03-08T09:31:15;98267.19;;;7.39;80.26
26807;BME280;14380;49.910;6.792;2024-03-08T09:36:13;98261.63;;;7.28;80.41
26807;BME280;14380;49.910;6.792;2024-03-08T09:38:39;98263.56;;;7.42;79.02
26807;BME280;14380;49.910;6.792;2024-03-08T09:41:06;98266.25;;;7.40;77.29
26807;BME280;14380;49.910;6.792;2024-03-08T09:43:35;98265.63;;;7.53;77.66
26807;BME280;14380;49.910;6.792;2024-03-08T09:46:03;98253.59;;;7.49;77.07
26807;BME280;14380;49.910;6.792;2024-03-08T09:48:31;98239.38;;;7.35;76.84
26807;BME280;14380;49.910;6.792;2024-03-08T09:50:58;98240.28;;;8.19;77.04
26807;BME280;14380;49.910;6.792;2024-03-08T09:53:24;98244.81;;;8.33;75.99
26807;BME280;14380;49.910;6.792;2024-03-08T09:55:51;98238.34;;;7.73;74.69
26807;BME280;14380;49.910;6.792;2024-03-08T09:58:18;98242.06;;;8.02;76.10
26807;BME280;14380;49.910;6.792;2024-03-08T10:01:18;98243.03;;;7.84;77.24
26807;BME280;14380;49.910;6.792;2024-03-08T10:03:47;98245.81;;;7.81;75.07
26807;BME280;14380;49.910;6.792;2024-03-08T10:06:14;98223.25;;;7.77;75.46
26807;BME280;14380;49.910;6.792;2024-03-08T10:08:40;98231.44;;;8.04;75.60
26807;BME280;14380;49.910;6.792;2024-03-08T10:11:07;98231.84;;;7.80;75.75
26807;BME280;14380;49.910;6.792;2024-03-08T10:13:37;98218.84;;;8.11;74.61
26807;BME280;14380;49.910;6.792;2024-03-08T10:16:05;98214.25;;;8.14;73.86
26807;BME280;14380;49.910;6.792;2024-03-08T10:18:33;98210.25;;;8.39;75.15
26807;BME280;14380;49.910;6.792;2024-03-08T10:21:04;98215.44;;;8.09;74.63
26807;BME280;14380;49.910;6.792;2024-03-08T10:23:33;98207.16;;;8.48;74.37
26807;BME280;14380;49.910;6.792;2024-03-08T10:26:09;98212.06;;;8.07;74.41
26807;BME280;14380;49.910;6.792;2024-03-08T10:28:36;98200.38;;;8.60;73.86
26807;BME280;14380;49.910;6.792;2024-03-08T10:31:03;98202.06;;;8.61;74.12
26807;BME280;14380;49.910;6.792;2024-03-08T10:33:31;98198.00;;;8.56;74.09
26807;BME280;14380;49.910;6.792;2024-03-08T10:35:59;98195.78;;;8.64;73.59
26807;BME280;14380;49.910;6.792;2024-03-08T10:38:26;98184.22;;;8.67;74.02
26807;BME280;14380;49.910;6.792;2024-03-08T10:40:53;98177.47;;;8.93;74.12
26807;BME280;14380;49.910;6.792;2024-03-08T10:43:23;98174.75;;;8.95;73.43
26807;BME280;14380;49.910;6.792;2024-03-08T10:45:59;98176.56;;;8.78;72.81
26807;BME280;14380;49.910;6.792;2024-03-08T10:48:30;98174.44;;;8.85;72.19
26807;BME280;14380;49.910;6.792;2024-03-08T10:50:59;98168.09;;;9.48;71.91
26807;BME280;14380;49.910;6.792;2024-03-08T10:53:29;98170.78;;;9.32;72.84
26807;BME280;14380;49.910;6.792;2024-03-08T10:55:56;98174.00;;;9.37;70.72
26807;BME280;14380;49.910;6.792;2024-03-08T10:58:24;98168.41;;;9.13;71.93
26807;BME280;14380;49.910;6.792;2024-03-08T11:00:52;98172.03;;;8.96;71.72
26807;BME280;14380;49.910;6.792;2024-03-08T11:03:46;98163.63;;;9.34;70.42
26807;BME280;14380;49.910;6.792;2024-03-08T11:06:17;98165.75;;;9.13;70.33
26807;BME280;14380;49.910;6.792;2024-03-08T11:08:47;98161.19;;;9.31;70.34
26807;BME280;14380;49.910;6.792;2024-03-08T11:11:28;98152.47;;;9.74;71.37
26807;BME280;14380;49.910;6.792;2024-03-08T11:14:00;98150.03;;;9.86;70.34
26807;BME280;14380;49.910;6.792;2024-03-08T11:16:39;98148.09;;;10.02;70.12
26807;BME280;14380;49.910;6.792;2024-03-08T11:19:34;98146.81;;;9.80;69.87
26807;BME280;14380;49.910;6.792;2024-03-08T11:22:03;98142.88;;;9.73;69.77
26807;BME280;14380;49.910;6.792;2024-03-08T11:24:39;98145.50;;;9.88;69.79
26807;BME280;14380;49.910;6.792;2024-03-08T11:27:10;98146.25;;;9.61;69.59
26807;BME280;14380;49.910;6.792;2024-03-08T11:29:37;98137.84;;;10.12;68.83
26807;BME280;14380;49.910;6.792;2024-03-08T11:32:08;98136.59;;;10.03;68.94
26807;BME280;14380;49.910;6.792;2024-03-08T11:34:36;98133.47;;;9.69;68.85
26807;BME280;14380;49.910;6.792;2024-03-08T11:37:05;98128.22;;;10.38;69.26
26807;BME280;14380;49.910;6.792;2024-03-08T11:39:35;98147.53;;;9.97;69.28
26807;BME280;14380;49.910;6.792;2024-03-08T11:42:03;98140.13;;;10.46;70.27
26807;BME280;14380;49.910;6.792;2024-03-08T11:44:30;98135.69;;;10.32;68.73
26807;BME280;14380;49.910;6.792;2024-03-08T11:46:57;98137.78;;;9.85;68.82
26807;BME280;14380;49.910;6.792;2024-03-08T11:49:23;98139.91;;;10.07;68.57
26807;BME280;14380;49.910;6.792;2024-03-08T11:51:51;98128.22;;;10.11;68.09
26807;BME280;14380;49.910;6.792;2024-03-08T11:54:20;98124.13;;;10.34;68.66
26807;BME280;14380;49.910;6.792;2024-03-08T11:56:46;98116.19;;;10.34;67.24
26807;BME280;14380;49.910;6.792;2024-03-08T11:59:13;98121.84;;;10.43;68.67
26807;BME280;14380;49.910;6.792;2024-03-08T12:01:40;98111.56;;;10.38;68.79
26807;BME280;14380;49.910;6.792;2024-03-08T12:04:06;98114.66;;;10.45;69.10
26807;BME280;14380;49.910;6.792;2024-03-08T12:06:38;98110.81;;;10.50;69.15
26807;BME280;14380;49.910;6.792;2024-03-08T12:09:08;98111.88;;;10.33;68.53
26807;BME280;14380;49.910;6.792;2024-03-08T12:11:37;98103.53;;;10.67;68.55
26807;BME280;14380;49.910;6.792;2024-03-08T12:14:03;98103.88;;;10.75;67.72
26807;BME280;14380;49.910;6.792;2024-03-08T12:16:31;98090.56;;;10.36;67.71
26807;BME280;14380;49.910;6.792;2024-03-08T12:18:59;98089.28;;;10.56;67.54
26807;BME280;14380;49.910;6.792;2024-03-08T12:21:31;98087.56;;;10.01;67.88
26807;BME280;14380;49.910;6.792;2024-03-08T12:24:04;98080.13;;;10.20;69.12
26807;BME280;14380;49.910;6.792;2024-03-08T12:26:36;98073.00;;;10.63;68.46
26807;BME280;14380;49.910;6.792;2024-03-08T12:29:17;98073.44;;;10.29;68.60
26807;BME280;14380;49.910;6.792;2024-03-08T12:31:46;98064.47;;;10.59;69.15
26807;BME280;14380;49.910;6.792;2024-03-08T12:34:13;98057.81;;;10.53;67.96
26807;BME280;14380;49.910;6.792;2024-03-08T12:36:45;98048.69;;;10.98;68.04
26807;BME280;14380;49.910;6.792;2024-03-08T12:39:13;98047.41;;;11.04;67.70
26807;BME280;14380;49.910;6.792;2024-03-08T12:41:42;98049.84;;;10.81;66.62
26807;BME280;14380;49.910;6.792;2024-03-08T12:44:09;98043.75;;;9.98;67.19
26807;BME280;14380;49.910;6.792;2024-03-08T12:46:37;98037.53;;;10.67;67.28
26807;BME280;14380;49.910;6.792;2024-03-08T12:49:06;98040.50;;;11.40;66.57
26807;BME280;14380;49.910;6.792;2024-03-08T12:51:33;98030.19;;;11.11;66.37
26807;BME280;14380;49.910;6.792;2024-03-08T12:54:00;98033.34;;;11.29;66.92
26807;BME280;14380;49.910;6.792;2024-03-08T12:56:29;98025.44;;;11.03;66.98
26807;BME280;14380;49.910;6.792;2024-03-08T12:58:57;98023.22;;;10.97;67.73
26807;BME280;14380;49.910;6.792;2024-03-08T13:01:24;98007.22;;;11.11;66.78
26807;BME280;14380;49.910;6.792;2024-03-08T13:03:50;98012.41;;;10.61;67.41
26807;BME280;14380;49.910;6.792;2024-03-08T13:06:18;98004.72;;;11.10;67.92
26807;BME280;14380;49.910;6.792;2024-03-08T13:08:47;98006.16;;;11.27;69.08
26807;BME280;14380;49.910;6.792;2024-03-08T13:11:14;98003.09;;;11.33;66.97
26807;BME280;14380;49.910;6.792;2024-03-08T13:13:40;97991.13;;;11.40;66.92
26807;BME280;14380;49.910;6.792;2024-03-08T13:16:08;97985.88;;;11.14;66.71